AirNav   Air Wisconsin Up To $57,000 Bonus
 
 1264 users online  

T15 Marlin Airport
Marlin, Texas, USA

GOING TO MARLIN?


FAA INFORMATION EFFECTIVE 26 JANUARY 2023

Location

FAA Identifier: T15
Lat/Long: 31-20-26.4000N 096-51-07.3000W
31-20.440000N 096-51.121667W
31.3406667,-96.8520278
(estimated)
Elevation: 410.7 ft. / 125.2 m (surveyed)
Variation: 05E (2000)
From city: 3 miles NE of MARLIN, TX
Time zone: UTC -6 (UTC -5 during Daylight Saving Time)
Zip code: 76661

Airport Operations

Airport use: Open to the public
Activation date: 07/1960
Control tower: no
ARTCC: FORT WORTH CENTER
FSS: FORT WORTH FLIGHT SERVICE STATION
NOTAMs facility: FTW (NOTAM-D service available)
Attendance: UNATNDD
Wind indicator: lighted, WINDSOCK MAY BE UNREL DUE TO TREES IN PROXIMITY AND MAST NOT VER.
Segmented circle: yes
Lights: SS-SR
Beacon: white-green (lighted land airport)
Operates sunset to sunrise.

Airport Communications

CTAF: 122.9
WACO APPROACH: 127.65
WACO DEPARTURE: 127.65
  • APCH/DEP CTL SVC PRVDD BY FORT WORTH ARTCC (ZFW) ON FREQS 133.3/269.5 (WACO RCAG) WHEN WACO APCH CTL (ACT) CLSD.

Nearby radio navigation aids

VOR radial/distance  VOR name  Freq  Var
ACTr123/28.8WACO VORTAC115.3009E

 
NDB name  Hdg/Dist  Freq  Var  ID
ROBINSON128/14.840003EROB .-. --- -...

Airport Services

Parking: tiedowns
Airframe service: NONE
Powerplant service: NONE
Bottled oxygen: NONE
Bulk oxygen: NONE

Runway Information

Runway 17/35

Dimensions: 3021 x 50 ft. / 921 x 15 m
Surface: asphalt, in fair condition
Weight bearing capacity: 
Single wheel: 4.0
Runway edge lights: non-standard
N 2900 FT LGTD.
RUNWAY 17  RUNWAY 35
Latitude: 31-20.689823N31-20.191620N
Longitude: 096-51.116752W096-51.127988W
Elevation: 410.4 ft.401.9 ft.
Traffic pattern: leftleft
Runway heading: 176 magnetic, 181 true356 magnetic, 001 true
Displaced threshold: no90 ft.
Markings: basic, in fair conditionbasic, in fair condition
Touchdown point: yes, no lightsyes, no lights
Obstructions: 32 ft. trees, 650 ft. from runway, 130 ft. left of centerline, 14:1 slope to clear8 ft. fence, 201 ft. from runway, 75 ft. right of centerline
8 FT FENCE, 0-199 FT DSTC, 70 FT RIGHT. 30 FT TREE, 150 FT DSTC, 75 FT R.

Airport Ownership and Management from official FAA records

Ownership: Publicly-owned
Owner: CITY OF MARLIN
PO BOX 980
MARLIN, TX 76661
Phone 254-883-1450
Manager: SCOTT FORNASH
PO BOX 980
MARLIN, TX 76661
Phone 254-275-0051
PUBLIC WORKS DIRECTOR.

Airport Operational Statistics

Aircraft based on the field: 1
Single engine airplanes: 1
    
Aircraft operations: avg 29/month *
86% transient general aviation
14% military
* for 12-month period ending 29 September 2022

Additional Remarks

RWY THR MARKINGS NOT COINCIDENT WITH THR LGTS.
FOR CD CTC FORT WORTH ARTCC AT 817-858-7584.
VEGETATION OBSCS LGTS.

Instrument Procedures

NOTE: All procedures below are presented as PDF files. If you need a reader for these files, you should download the free Adobe Reader.

NOT FOR NAVIGATION. Please procure official charts for flight.
FAA instrument procedures published for use from 26 January 2023 at 0901Z to 23 February 2023 at 0900z.

 
IAPs - Instrument Approach Procedures
VOR/DME OR GPS-A   download
NOTE: Special Take-Off Minimums/Departure Procedures apply   download (70KB)

Other nearby airports with instrument procedures:

KCNW - TSTC Waco Airport (21 nm NW)
KLXY - Mexia-Limestone County Airport (25 nm NE)
KACT - Waco Regional Airport (25 nm NW)
KPWG - Mc Gregor Executive Airport (25 nm W)
KLHB - Hearne Municipal Airport (30 nm SE)
 
Loc | Ops | Rwys | IFR | FBO | Links
Com | Nav | Svcs | Stats | Notes

City of Fort Worth
 
Area around T15 (Marlin Airport)
 
Road maps at: MapQuest Bing Google
 
Aerial photo
WARNING: Photo may not be current or correct
Aerial photo of T15 (Marlin Airport)
Do you have a better or more recent aerial photo of Marlin Airport that you would like to share? If so, please send us your photo.

 
Sectional chart

 
Airport distance calculator
Flying to Marlin Airport? Find the distance to fly.

From to T15

Sunrise and sunset
Times for 28-Jan-2023
 Local
(UTC-6)
 Zulu
(UTC)
Morning civil twilight06:5812:58
Sunrise07:2313:23
Sunset17:5823:58
Evening civil twilight18:2300:23

Current date and time
Zulu (UTC)  28-Jan-2023 18:26:09
Local (UTC-6)  28-Jan-2023 12:26:09
 
METAR
KCNW 
21nm NW 
281755Z 00000KT 2 1/2SM BR OVC004 12/12 A3007
KPWG 
25nm W 
281820Z AUTO 20005KT 10SM OVC006 14/12 A3005 RMK AO2
KLXY 
25nm NE 
281815Z AUTO 15005KT 1/4SM FG OVC002 13/13 A3005 RMK AO2 T01290126
KACT 
26nm NW 
281751Z 19009KT 10SM OVC005 12/11 A3006 RMK AO2 SLP177 60001 T01170111 10117 20083 58011
KT35 
28nm S 
281815Z AUTO 22003KT 7SM OVC004 14/14 A3006 RMK AO2 T01440136
KLHB 
31nm SE 
281815Z AUTO 00000KT 1SM BR OVC003 15/15 A3007 RMK AO2 T01500145
KTPL 
31nm SW 
281809Z AUTO 17007KT OVC004 13/13 A3006 RMK AO2 PWINO RVRNO $
TAF
KACT 
26nm NW 
281730Z 2818/2918 19012KT P6SM BKN008 FM282200 19013KT P6SM OVC011 FM290500 19012KT P6SM OVC006 FM290600 19011KT P6SM OVC005 FM291400 31007KT P6SM VCSH OVC007 FM291600 34014KT P6SM VCTS BKN007CB
NOTAMs
Click for the latest NOTAMs
NOTAMs are issued by the DoD/FAA and will open in a separate window not controlled by AirNav.

 

 
 

Would you like to see your business listed on this page?

 If your business provides an interesting product or service to pilots, flight crews, aircraft, or users of the Marlin Airport, you should consider listing it here.  To start the listing process, click on the button below
 
Add a business
 

Other Pages about Marlin Airport

Update a link
 
Copyright © AirNav, LLC. All rights reserved. Privacy Policy  Contact